Overview Statistics Trail Chart Weather Telemetry Raw packets
 

This is the latest recevied weather packets stored in our database for station/object NR0A-4. If no packets are shown the sender has not sent any weather packets the latest 10 day(s).

<< 73 74 75 76 77 78 79 >>
Time Temp. Humidity Pressure Rain* Wind** Luminosity Snow
1788136504 29.44° C 63% 1008.6 hPa 0 mm - 28 W/m² -
1788136204 29.44° C 63% 1008.7 hPa 0 mm - 33 W/m² -
1788135904 29.44° C 63% 1008.7 hPa 0 mm - 35 W/m² -
1788135604 30° C 63% 1008.8 hPa 0 mm - 30 W/m² -
1788135321 30° C 64% 1008.7 hPa 0 mm - 35 W/m² -
1788135004 30° C 64% 1008.8 hPa 0 mm - 47 W/m² -
1788134705 30° C 65% 1008.8 hPa 0 mm - 47 W/m² -
1788134404 30° C 65% 1008.8 hPa 0 mm - 42 W/m² -
1788134104 30.56° C 64% 1008.8 hPa 0 mm - 47 W/m² -
1788133804 30.56° C 63% 1008.7 hPa 0 mm - 49 W/m² -
1788133504 30.56° C 63% 1008.8 hPa 0 mm - 40 W/m² -
1788133205 31.11° C 61% 1008.7 hPa 0 mm - 35 W/m² -
1788132904 31.11° C 60% 1008.6 hPa 0 mm - 37 W/m² -
1788132604 31.11° C 58% 1008.5 hPa 0 mm - 49 W/m² -
1788132305 31.11° C 55% 1008.4 hPa 0 mm - 53 W/m² -
1788132004 31.11° C 55% 1008.5 hPa 0 mm - 63 W/m² -
1788131704 31.11° C 53% 1008.3 hPa 0 mm - 70 W/m² -
1788131404 31.11° C 52% 1008.3 hPa 0 mm - 81 W/m² -
1788131104 31.67° C 54% 1008.3 hPa 0 mm - 120 W/m² -
1788130804 31.67° C 57% 1008.5 hPa 0 mm - 172 W/m² -
1788130503 31.67° C 56% 1008.3 hPa 0 mm - 128 W/m² -
1788130204 32.22° C 54% 1008.3 hPa 0 mm - 334 W/m² -
1788129904 32.22° C 55% 1008.3 hPa 0 mm - 236 W/m² -
1788129604 32.22° C 54% 1008.1 hPa 0 mm - 313 W/m² -
1788129304 32.22° C 58% 1008.1 hPa 0 mm - 332 W/m² -

* Rain latest hour (hover to see other rain measurements)
** Current wind speed in m/s (hover to see current wind gust speed)